sensor_id;sensor_type;location;lat;lon;timestamp;temperature;humidity
19908;DHT22;10116;53.112;7.356;2023-04-06T00:00:51;24.10;1.00
19908;DHT22;10116;53.112;7.356;2023-04-06T00:03:18;24.10;1.00
19908;DHT22;10116;53.112;7.356;2023-04-06T00:05:43;24.10;1.00
19908;DHT22;10116;53.112;7.356;2023-04-06T00:08:09;24.10;1.00
19908;DHT22;10116;53.112;7.356;2023-04-06T00:10:35;24.10;1.00
19908;DHT22;10116;53.112;7.356;2023-04-06T00:13:00;24.10;1.00
19908;DHT22;10116;53.112;7.356;2023-04-06T00:15:27;24.10;1.00
19908;DHT22;10116;53.112;7.356;2023-04-06T00:17:52;24.10;1.00
19908;DHT22;10116;53.112;7.356;2023-04-06T00:20:18;24.10;1.00
19908;DHT22;10116;53.112;7.356;2023-04-06T00:22:44;24.10;1.00
19908;DHT22;10116;53.112;7.356;2023-04-06T00:25:10;24.10;1.00
19908;DHT22;10116;53.112;7.356;2023-04-06T00:27:36;24.10;1.00
19908;DHT22;10116;53.112;7.356;2023-04-06T00:30:04;24.10;1.00
19908;DHT22;10116;53.112;7.356;2023-04-06T00:32:30;24.10;1.00
19908;DHT22;10116;53.112;7.356;2023-04-06T00:34:56;24.10;1.00
19908;DHT22;10116;53.112;7.356;2023-04-06T00:37:22;24.10;1.00
19908;DHT22;10116;53.112;7.356;2023-04-06T00:39:47;24.10;1.00
19908;DHT22;10116;53.112;7.356;2023-04-06T00:42:13;24.10;1.00
19908;DHT22;10116;53.112;7.356;2023-04-06T00:44:42;24.10;1.00
19908;DHT22;10116;53.112;7.356;2023-04-06T00:47:08;24.10;1.00
19908;DHT22;10116;53.112;7.356;2023-04-06T00:49:34;24.10;1.00
19908;DHT22;10116;53.112;7.356;2023-04-06T00:52:00;24.10;1.00
19908;DHT22;10116;53.112;7.356;2023-04-06T00:54:27;24.10;1.00
19908;DHT22;10116;53.112;7.356;2023-04-06T00:56:53;24.10;1.00
19908;DHT22;10116;53.112;7.356;2023-04-06T00:59:18;24.10;1.00
19908;DHT22;10116;53.112;7.356;2023-04-06T01:01:44;24.10;1.00
19908;DHT22;10116;53.112;7.356;2023-04-06T01:04:10;24.10;1.00
19908;DHT22;10116;53.112;7.356;2023-04-06T01:06:36;24.10;1.00
19908;DHT22;10116;53.112;7.356;2023-04-06T01:09:02;24.10;1.00
19908;DHT22;10116;53.112;7.356;2023-04-06T01:11:27;24.10;1.00
19908;DHT22;10116;53.112;7.356;2023-04-06T01:13:53;24.10;1.00
19908;DHT22;10116;53.112;7.356;2023-04-06T01:16:19;24.10;1.00
19908;DHT22;10116;53.112;7.356;2023-04-06T01:18:44;24.10;1.00
19908;DHT22;10116;53.112;7.356;2023-04-06T01:21:10;24.10;1.00
19908;DHT22;10116;53.112;7.356;2023-04-06T01:23:43;24.10;1.00
19908;DHT22;10116;53.112;7.356;2023-04-06T01:26:09;24.10;1.00
19908;DHT22;10116;53.112;7.356;2023-04-06T01:28:35;24.10;1.00
19908;DHT22;10116;53.112;7.356;2023-04-06T01:31:03;24.10;1.00
19908;DHT22;10116;53.112;7.356;2023-04-06T01:33:28;24.10;1.00
19908;DHT22;10116;53.112;7.356;2023-04-06T01:35:54;24.10;1.00
19908;DHT22;10116;53.112;7.356;2023-04-06T01:38:20;24.10;1.00
19908;DHT22;10116;53.112;7.356;2023-04-06T01:40:46;24.10;1.00
19908;DHT22;10116;53.112;7.356;2023-04-06T01:43:11;24.10;1.00
19908;DHT22;10116;53.112;7.356;2023-04-06T01:45:37;24.10;1.00
19908;DHT22;10116;53.112;7.356;2023-04-06T01:48:03;24.10;1.00
19908;DHT22;10116;53.112;7.356;2023-04-06T01:50:29;24.10;1.00
19908;DHT22;10116;53.112;7.356;2023-04-06T01:52:55;24.10;1.00
19908;DHT22;10116;53.112;7.356;2023-04-06T01:55:20;24.10;1.00
19908;DHT22;10116;53.112;7.356;2023-04-06T01:57:46;24.10;1.00
19908;DHT22;10116;53.112;7.356;2023-04-06T02:00:12;24.10;1.00
19908;DHT22;10116;53.112;7.356;2023-04-06T02:02:38;24.10;1.00
19908;DHT22;10116;53.112;7.356;2023-04-06T02:05:04;24.10;1.00
19908;DHT22;10116;53.112;7.356;2023-04-06T02:07:30;24.10;1.00
19908;DHT22;10116;53.112;7.356;2023-04-06T02:09:56;24.10;1.00
19908;DHT22;10116;53.112;7.356;2023-04-06T02:12:21;24.10;1.00
19908;DHT22;10116;53.112;7.356;2023-04-06T02:14:47;24.10;1.00
19908;DHT22;10116;53.112;7.356;2023-04-06T02:17:13;24.10;1.00
19908;DHT22;10116;53.112;7.356;2023-04-06T02:19:38;24.10;1.00
19908;DHT22;10116;53.112;7.356;2023-04-06T02:22:04;24.10;1.00
19908;DHT22;10116;53.112;7.356;2023-04-06T02:24:29;24.00;1.00
19908;DHT22;10116;53.112;7.356;2023-04-06T02:26:55;24.00;1.00
19908;DHT22;10116;53.112;7.356;2023-04-06T02:29:21;24.00;1.00
19908;DHT22;10116;53.112;7.356;2023-04-06T02:31:46;24.00;1.00
19908;DHT22;10116;53.112;7.356;2023-04-06T02:34:12;24.00;1.00
19908;DHT22;10116;53.112;7.356;2023-04-06T02:36:44;24.00;1.00
19908;DHT22;10116;53.112;7.356;2023-04-06T02:39:10;24.00;1.00
19908;DHT22;10116;53.112;7.356;2023-04-06T02:41:35;24.00;1.00
19908;DHT22;10116;53.112;7.356;2023-04-06T02:44:01;24.00;1.00
19908;DHT22;10116;53.112;7.356;2023-04-06T02:46:26;24.00;1.00
19908;DHT22;10116;53.112;7.356;2023-04-06T02:48:52;24.00;1.00
19908;DHT22;10116;53.112;7.356;2023-04-06T02:51:18;24.00;1.00
19908;DHT22;10116;53.112;7.356;2023-04-06T02:53:43;24.00;1.00
19908;DHT22;10116;53.112;7.356;2023-04-06T02:56:09;24.00;1.00
19908;DHT22;10116;53.112;7.356;2023-04-06T02:58:35;24.00;1.00
19908;DHT22;10116;53.112;7.356;2023-04-06T03:01:00;24.00;1.00
19908;DHT22;10116;53.112;7.356;2023-04-06T03:03:26;24.00;1.00
19908;DHT22;10116;53.112;7.356;2023-04-06T03:05:52;24.00;1.00
19908;DHT22;10116;53.112;7.356;2023-04-06T03:08:19;24.00;1.00
19908;DHT22;10116;53.112;7.356;2023-04-06T03:10:45;24.00;1.00
19908;DHT22;10116;53.112;7.356;2023-04-06T03:13:11;24.00;1.00
19908;DHT22;10116;53.112;7.356;2023-04-06T03:15:36;24.00;1.00
19908;DHT22;10116;53.112;7.356;2023-04-06T03:18:02;24.00;1.00
19908;DHT22;10116;53.112;7.356;2023-04-06T03:20:28;24.00;1.00
19908;DHT22;10116;53.112;7.356;2023-04-06T03:22:53;24.00;1.00
19908;DHT22;10116;53.112;7.356;2023-04-06T03:25:19;24.10;1.00
19908;DHT22;10116;53.112;7.356;2023-04-06T03:27:44;24.10;1.00
19908;DHT22;10116;53.112;7.356;2023-04-06T03:30:10;24.20;1.00
19908;DHT22;10116;53.112;7.356;2023-04-06T03:32:36;24.20;1.00
19908;DHT22;10116;53.112;7.356;2023-04-06T03:35:02;24.30;1.00
19908;DHT22;10116;53.112;7.356;2023-04-06T03:37:27;24.40;1.00
19908;DHT22;10116;53.112;7.356;2023-04-06T03:39:53;24.40;1.00
19908;DHT22;10116;53.112;7.356;2023-04-06T03:42:18;24.50;1.00
19908;DHT22;10116;53.112;7.356;2023-04-06T03:44:44;24.50;1.00
19908;DHT22;10116;53.112;7.356;2023-04-06T03:47:10;24.60;1.00
19908;DHT22;10116;53.112;7.356;2023-04-06T03:49:36;24.60;1.00
19908;DHT22;10116;53.112;7.356;2023-04-06T03:52:01;24.60;1.00
19908;DHT22;10116;53.112;7.356;2023-04-06T03:54:27;24.60;1.00
19908;DHT22;10116;53.112;7.356;2023-04-06T03:56:52;24.60;1.00
19908;DHT22;10116;53.112;7.356;2023-04-06T03:59:18;24.60;1.00
19908;DHT22;10116;53.112;7.356;2023-04-06T04:01:44;24.60;1.00
19908;DHT22;10116;53.112;7.356;2023-04-06T04:04:10;24.70;1.00
19908;DHT22;10116;53.112;7.356;2023-04-06T04:06:35;24.70;1.00
19908;DHT22;10116;53.112;7.356;2023-04-06T04:09:02;24.70;1.00
19908;DHT22;10116;53.112;7.356;2023-04-06T04:11:27;24.60;1.00
19908;DHT22;10116;53.112;7.356;2023-04-06T04:13:53;24.60;1.00
19908;DHT22;10116;53.112;7.356;2023-04-06T04:16:19;24.60;1.00
19908;DHT22;10116;53.112;7.356;2023-04-06T04:18:44;24.60;1.00
19908;DHT22;10116;53.112;7.356;2023-04-06T04:21:12;24.70;1.00
19908;DHT22;10116;53.112;7.356;2023-04-06T04:23:38;24.70;1.00
19908;DHT22;10116;53.112;7.356;2023-04-06T04:26:03;24.80;1.00
19908;DHT22;10116;53.112;7.356;2023-04-06T04:28:30;24.80;1.00
19908;DHT22;10116;53.112;7.356;2023-04-06T04:30:55;24.80;1.00
19908;DHT22;10116;53.112;7.356;2023-04-06T04:33:21;24.90;1.00
19908;DHT22;10116;53.112;7.356;2023-04-06T04:35:46;24.80;1.00
19908;DHT22;10116;53.112;7.356;2023-04-06T04:38:12;24.90;1.00
19908;DHT22;10116;53.112;7.356;2023-04-06T04:40:38;24.90;1.00
19908;DHT22;10116;53.112;7.356;2023-04-06T04:43:03;24.90;1.00
19908;DHT22;10116;53.112;7.356;2023-04-06T04:45:29;24.90;1.00
19908;DHT22;10116;53.112;7.356;2023-04-06T04:47:55;24.90;1.00
19908;DHT22;10116;53.112;7.356;2023-04-06T04:50:21;24.80;1.00
19908;DHT22;10116;53.112;7.356;2023-04-06T04:52:46;24.80;1.00
19908;DHT22;10116;53.112;7.356;2023-04-06T04:55:12;24.80;1.00
19908;DHT22;10116;53.112;7.356;2023-04-06T04:57:37;24.80;1.00
19908;DHT22;10116;53.112;7.356;2023-04-06T05:00:03;24.80;1.00
19908;DHT22;10116;53.112;7.356;2023-04-06T05:02:29;24.80;1.00
19908;DHT22;10116;53.112;7.356;2023-04-06T05:04:55;24.80;1.00
19908;DHT22;10116;53.112;7.356;2023-04-06T05:07:21;24.80;1.00
19908;DHT22;10116;53.112;7.356;2023-04-06T05:09:46;24.80;1.00
19908;DHT22;10116;53.112;7.356;2023-04-06T05:12:13;24.80;1.00
19908;DHT22;10116;53.112;7.356;2023-04-06T05:14:38;24.70;1.00
19908;DHT22;10116;53.112;7.356;2023-04-06T05:17:04;24.80;1.00
19908;DHT22;10116;53.112;7.356;2023-04-06T05:19:30;24.80;1.00
19908;DHT22;10116;53.112;7.356;2023-04-06T05:21:56;24.80;1.00
19908;DHT22;10116;53.112;7.356;2023-04-06T05:24:21;24.80;1.00
19908;DHT22;10116;53.112;7.356;2023-04-06T05:26:48;24.80;1.00
19908;DHT22;10116;53.112;7.356;2023-04-06T05:29:14;24.80;1.00
19908;DHT22;10116;53.112;7.356;2023-04-06T05:31:40;24.80;1.00
19908;DHT22;10116;53.112;7.356;2023-04-06T05:34:06;24.90;1.00
19908;DHT22;10116;53.112;7.356;2023-04-06T05:36:32;24.90;1.00
19908;DHT22;10116;53.112;7.356;2023-04-06T05:38:58;24.90;1.00
19908;DHT22;10116;53.112;7.356;2023-04-06T05:41:24;24.90;1.00
19908;DHT22;10116;53.112;7.356;2023-04-06T05:43:50;24.90;1.00
19908;DHT22;10116;53.112;7.356;2023-04-06T05:46:15;24.90;1.00
19908;DHT22;10116;53.112;7.356;2023-04-06T05:48:41;24.90;1.00
19908;DHT22;10116;53.112;7.356;2023-04-06T05:51:06;25.00;1.00
19908;DHT22;10116;53.112;7.356;2023-04-06T05:53:32;24.90;1.00
19908;DHT22;10116;53.112;7.356;2023-04-06T05:56:02;24.90;1.00
19908;DHT22;10116;53.112;7.356;2023-04-06T05:58:28;25.00;1.00
19908;DHT22;10116;53.112;7.356;2023-04-06T06:00:58;24.90;1.00
19908;DHT22;10116;53.112;7.356;2023-04-06T06:03:24;25.00;1.00
19908;DHT22;10116;53.112;7.356;2023-04-06T06:05:49;24.90;1.00
19908;DHT22;10116;53.112;7.356;2023-04-06T06:08:15;25.00;1.00
19908;DHT22;10116;53.112;7.356;2023-04-06T06:10:40;25.00;1.00
19908;DHT22;10116;53.112;7.356;2023-04-06T06:13:06;25.00;1.00
19908;DHT22;10116;53.112;7.356;2023-04-06T06:15:32;25.00;1.00
19908;DHT22;10116;53.112;7.356;2023-04-06T06:17:57;25.10;1.00
19908;DHT22;10116;53.112;7.356;2023-04-06T06:20:23;25.10;1.00
19908;DHT22;10116;53.112;7.356;2023-04-06T06:22:49;25.20;1.00
19908;DHT22;10116;53.112;7.356;2023-04-06T06:25:14;25.20;1.00
19908;DHT22;10116;53.112;7.356;2023-04-06T06:27:41;25.30;1.00
19908;DHT22;10116;53.112;7.356;2023-04-06T06:30:07;25.30;1.00
19908;DHT22;10116;53.112;7.356;2023-04-06T06:32:33;25.40;1.00
19908;DHT22;10116;53.112;7.356;2023-04-06T06:34:59;25.40;1.00
19908;DHT22;10116;53.112;7.356;2023-04-06T06:37:24;25.40;1.00
19908;DHT22;10116;53.112;7.356;2023-04-06T06:39:50;25.40;1.00
19908;DHT22;10116;53.112;7.356;2023-04-06T06:42:16;25.40;1.00
19908;DHT22;10116;53.112;7.356;2023-04-06T06:44:41;25.50;1.00
19908;DHT22;10116;53.112;7.356;2023-04-06T06:47:07;25.50;1.00
19908;DHT22;10116;53.112;7.356;2023-04-06T06:49:32;25.40;1.00
19908;DHT22;10116;53.112;7.356;2023-04-06T06:51:58;25.40;1.00
19908;DHT22;10116;53.112;7.356;2023-04-06T06:54:24;25.40;1.00
19908;DHT22;10116;53.112;7.356;2023-04-06T06:56:49;25.40;1.00
19908;DHT22;10116;53.112;7.356;2023-04-06T06:59:15;25.40;1.00
19908;DHT22;10116;53.112;7.356;2023-04-06T07:01:41;25.40;1.00
19908;DHT22;10116;53.112;7.356;2023-04-06T07:04:07;25.40;1.00
19908;DHT22;10116;53.112;7.356;2023-04-06T07:06:35;25.40;1.00
19908;DHT22;10116;53.112;7.356;2023-04-06T07:09:01;25.30;1.00
19908;DHT22;10116;53.112;7.356;2023-04-06T07:11:31;25.30;1.00
19908;DHT22;10116;53.112;7.356;2023-04-06T07:13:57;25.30;1.00
19908;DHT22;10116;53.112;7.356;2023-04-06T07:16:22;25.20;1.00
19908;DHT22;10116;53.112;7.356;2023-04-06T07:18:48;25.20;1.00
19908;DHT22;10116;53.112;7.356;2023-04-06T07:21:14;25.30;1.00
19908;DHT22;10116;53.112;7.356;2023-04-06T07:23:39;25.30;1.00
19908;DHT22;10116;53.112;7.356;2023-04-06T07:26:05;25.30;1.00
19908;DHT22;10116;53.112;7.356;2023-04-06T07:28:31;25.30;1.00
19908;DHT22;10116;53.112;7.356;2023-04-06T07:30:56;25.30;1.00
19908;DHT22;10116;53.112;7.356;2023-04-06T07:33:22;24.90;1.00
19908;DHT22;10116;53.112;7.356;2023-04-06T07:35:48;24.90;1.00
19908;DHT22;10116;53.112;7.356;2023-04-06T07:38:13;24.90;1.00
19908;DHT22;10116;53.112;7.356;2023-04-06T07:40:39;24.90;1.00
19908;DHT22;10116;53.112;7.356;2023-04-06T07:43:05;24.90;1.00
19908;DHT22;10116;53.112;7.356;2023-04-06T07:45:30;25.00;1.00
19908;DHT22;10116;53.112;7.356;2023-04-06T07:47:57;25.00;1.00
19908;DHT22;10116;53.112;7.356;2023-04-06T07:50:22;25.00;1.00
19908;DHT22;10116;53.112;7.356;2023-04-06T07:52:48;25.00;1.00
19908;DHT22;10116;53.112;7.356;2023-04-06T07:55:14;25.00;1.00
19908;DHT22;10116;53.112;7.356;2023-04-06T07:57:39;25.00;1.00
19908;DHT22;10116;53.112;7.356;2023-04-06T08:00:05;25.00;1.00
19908;DHT22;10116;53.112;7.356;2023-04-06T08:02:31;25.00;1.00
19908;DHT22;10116;53.112;7.356;2023-04-06T08:04:57;25.00;1.00
19908;DHT22;10116;53.112;7.356;2023-04-06T08:07:23;25.00;1.00
19908;DHT22;10116;53.112;7.356;2023-04-06T08:09:48;25.00;1.00
19908;DHT22;10116;53.112;7.356;2023-04-06T08:12:14;25.00;1.00
19908;DHT22;10116;53.112;7.356;2023-04-06T08:14:40;25.00;1.00
19908;DHT22;10116;53.112;7.356;2023-04-06T08:17:05;25.00;1.00
19908;DHT22;10116;53.112;7.356;2023-04-06T08:19:31;25.00;1.00
19908;DHT22;10116;53.112;7.356;2023-04-06T08:21:57;24.90;1.00
19908;DHT22;10116;53.112;7.356;2023-04-06T08:24:22;24.90;1.00
19908;DHT22;10116;53.112;7.356;2023-04-06T08:26:48;24.90;1.00
19908;DHT22;10116;53.112;7.356;2023-04-06T08:29:14;24.90;1.00
19908;DHT22;10116;53.112;7.356;2023-04-06T08:31:39;24.80;1.00
19908;DHT22;10116;53.112;7.356;2023-04-06T08:34:05;24.80;1.00
19908;DHT22;10116;53.112;7.356;2023-04-06T08:36:32;24.80;1.00
19908;DHT22;10116;53.112;7.356;2023-04-06T08:38:59;24.70;1.00
19908;DHT22;10116;53.112;7.356;2023-04-06T08:41:25;24.70;1.00
19908;DHT22;10116;53.112;7.356;2023-04-06T08:44:01;24.70;1.00
19908;DHT22;10116;53.112;7.356;2023-04-06T08:46:27;24.60;1.00
19908;DHT22;10116;53.112;7.356;2023-04-06T08:49:01;24.60;1.00
19908;DHT22;10116;53.112;7.356;2023-04-06T08:51:29;24.60;1.00
19908;DHT22;10116;53.112;7.356;2023-04-06T08:53:56;24.60;1.00
19908;DHT22;10116;53.112;7.356;2023-04-06T08:56:25;24.60;1.00
19908;DHT22;10116;53.112;7.356;2023-04-06T08:58:52;24.50;1.00
19908;DHT22;10116;53.112;7.356;2023-04-06T09:01:25;24.50;1.00
19908;DHT22;10116;53.112;7.356;2023-04-06T09:03:52;24.50;1.00
19908;DHT22;10116;53.112;7.356;2023-04-06T09:06:19;24.50;1.00
19908;DHT22;10116;53.112;7.356;2023-04-06T09:08:44;24.50;1.00
19908;DHT22;10116;53.112;7.356;2023-04-06T09:11:10;24.50;1.00
19908;DHT22;10116;53.112;7.356;2023-04-06T09:16:13;24.50;1.00
19908;DHT22;10116;53.112;7.356;2023-04-06T09:18:39;24.40;1.00
19908;DHT22;10116;53.112;7.356;2023-04-06T09:21:07;24.40;1.00
19908;DHT22;10116;53.112;7.356;2023-04-06T09:23:33;24.40;1.00
19908;DHT22;10116;53.112;7.356;2023-04-06T09:26:12;24.40;1.00
19908;DHT22;10116;53.112;7.356;2023-04-06T09:28:42;24.40;1.00
19908;DHT22;10116;53.112;7.356;2023-04-06T09:31:07;24.40;1.00
19908;DHT22;10116;53.112;7.356;2023-04-06T09:33:37;24.40;1.00
19908;DHT22;10116;53.112;7.356;2023-04-06T09:36:04;24.40;1.00
19908;DHT22;10116;53.112;7.356;2023-04-06T09:38:30;24.40;1.00
19908;DHT22;10116;53.112;7.356;2023-04-06T09:40:56;24.40;1.00
19908;DHT22;10116;53.112;7.356;2023-04-06T09:43:26;24.30;1.00
19908;DHT22;10116;53.112;7.356;2023-04-06T09:45:53;24.30;1.00
19908;DHT22;10116;53.112;7.356;2023-04-06T09:48:20;24.30;1.00
19908;DHT22;10116;53.112;7.356;2023-04-06T09:50:49;24.30;1.00
19908;DHT22;10116;53.112;7.356;2023-04-06T09:53:19;24.30;1.00
19908;DHT22;10116;53.112;7.356;2023-04-06T09:55:46;24.30;1.00
19908;DHT22;10116;53.112;7.356;2023-04-06T09:58:16;24.30;1.00
19908;DHT22;10116;53.112;7.356;2023-04-06T10:00:57;24.30;1.00
19908;DHT22;10116;53.112;7.356;2023-04-06T10:06:05;24.30;1.00
19908;DHT22;10116;53.112;7.356;2023-04-06T10:08:35;24.40;1.00
19908;DHT22;10116;53.112;7.356;2023-04-06T10:11:06;24.50;1.00
19908;DHT22;10116;53.112;7.356;2023-04-06T10:13:31;24.50;1.00
19908;DHT22;10116;53.112;7.356;2023-04-06T10:15:57;24.60;1.00
19908;DHT22;10116;53.112;7.356;2023-04-06T10:18:26;24.60;1.00
19908;DHT22;10116;53.112;7.356;2023-04-06T10:20:56;24.70;1.00
19908;DHT22;10116;53.112;7.356;2023-04-06T10:23:35;24.70;1.00
19908;DHT22;10116;53.112;7.356;2023-04-06T10:26:02;24.70;1.00
19908;DHT22;10116;53.112;7.356;2023-04-06T10:28:35;24.80;1.00
19908;DHT22;10116;53.112;7.356;2023-04-06T10:31:05;24.80;1.00
19908;DHT22;10116;53.112;7.356;2023-04-06T10:33:30;24.80;1.00
19908;DHT22;10116;53.112;7.356;2023-04-06T10:35:56;24.80;1.00
19908;DHT22;10116;53.112;7.356;2023-04-06T10:38:37;24.80;1.00
19908;DHT22;10116;53.112;7.356;2023-04-06T10:41:06;24.80;1.00
19908;DHT22;10116;53.112;7.356;2023-04-06T10:43:36;24.80;1.00
19908;DHT22;10116;53.112;7.356;2023-04-06T10:46:03;24.80;1.00
19908;DHT22;10116;53.112;7.356;2023-04-06T10:48:40;24.80;1.00
19908;DHT22;10116;53.112;7.356;2023-04-06T10:51:14;24.80;1.00
19908;DHT22;10116;53.112;7.356;2023-04-06T10:53:47;24.80;1.00
19908;DHT22;10116;53.112;7.356;2023-04-06T10:56:18;24.80;1.00
19908;DHT22;10116;53.112;7.356;2023-04-06T10:58:53;24.80;1.00
19908;DHT22;10116;53.112;7.356;2023-04-06T11:01:22;24.80;1.00
19908;DHT22;10116;53.112;7.356;2023-04-06T11:03:50;24.80;1.00
19908;DHT22;10116;53.112;7.356;2023-04-06T11:06:19;24.90;1.00
19908;DHT22;10116;53.112;7.356;2023-04-06T11:08:46;24.90;1.00
19908;DHT22;10116;53.112;7.356;2023-04-06T11:11:17;24.90;1.00
19908;DHT22;10116;53.112;7.356;2023-04-06T11:13:52;25.00;1.00
19908;DHT22;10116;53.112;7.356;2023-04-06T11:16:23;25.00;1.00
19908;DHT22;10116;53.112;7.356;2023-04-06T11:19:02;25.00;1.00
19908;DHT22;10116;53.112;7.356;2023-04-06T11:21:42;25.00;1.00
19908;DHT22;10116;53.112;7.356;2023-04-06T11:24:19;25.00;1.00
19908;DHT22;10116;53.112;7.356;2023-04-06T11:26:49;25.00;1.00
19908;DHT22;10116;53.112;7.356;2023-04-06T11:29:24;25.00;1.00
19908;DHT22;10116;53.112;7.356;2023-04-06T11:31:58;25.00;1.00
19908;DHT22;10116;53.112;7.356;2023-04-06T11:34:25;25.00;1.00
19908;DHT22;10116;53.112;7.356;2023-04-06T11:37:02;25.00;1.00
19908;DHT22;10116;53.112;7.356;2023-04-06T11:39:31;25.00;1.00
19908;DHT22;10116;53.112;7.356;2023-04-06T11:42:01;25.00;1.00
19908;DHT22;10116;53.112;7.356;2023-04-06T11:44:40;25.00;1.00
19908;DHT22;10116;53.112;7.356;2023-04-06T11:47:10;25.00;1.00
19908;DHT22;10116;53.112;7.356;2023-04-06T11:49:41;25.00;1.00
19908;DHT22;10116;53.112;7.356;2023-04-06T11:52:17;25.00;1.00
19908;DHT22;10116;53.112;7.356;2023-04-06T11:54:43;25.00;1.00
19908;DHT22;10116;53.112;7.356;2023-04-06T11:57:08;25.00;1.00
19908;DHT22;10116;53.112;7.356;2023-04-06T11:59:35;25.00;1.00
19908;DHT22;10116;53.112;7.356;2023-04-06T12:02:04;25.10;1.00
19908;DHT22;10116;53.112;7.356;2023-04-06T12:04:30;25.10;1.00
19908;DHT22;10116;53.112;7.356;2023-04-06T12:06:55;25.20;1.00
19908;DHT22;10116;53.112;7.356;2023-04-06T12:09:21;25.20;1.00
19908;DHT22;10116;53.112;7.356;2023-04-06T12:11:47;25.20;1.00
19908;DHT22;10116;53.112;7.356;2023-04-06T12:14:13;25.20;1.00
19908;DHT22;10116;53.112;7.356;2023-04-06T12:16:39;25.20;1.00
19908;DHT22;10116;53.112;7.356;2023-04-06T12:19:06;25.20;1.00
19908;DHT22;10116;53.112;7.356;2023-04-06T12:21:32;25.20;1.00
19908;DHT22;10116;53.112;7.356;2023-04-06T12:23:58;25.20;1.00
19908;DHT22;10116;53.112;7.356;2023-04-06T12:26:24;25.20;1.00
19908;DHT22;10116;53.112;7.356;2023-04-06T12:28:51;25.20;1.00
19908;DHT22;10116;53.112;7.356;2023-04-06T12:31:21;25.20;1.00
19908;DHT22;10116;53.112;7.356;2023-04-06T12:33:51;25.20;1.00
19908;DHT22;10116;53.112;7.356;2023-04-06T12:36:20;25.20;1.00
19908;DHT22;10116;53.112;7.356;2023-04-06T12:38:49;25.10;1.00
19908;DHT22;10116;53.112;7.356;2023-04-06T12:41:16;25.10;1.00
19908;DHT22;10116;53.112;7.356;2023-04-06T12:43:42;25.10;1.00
19908;DHT22;10116;53.112;7.356;2023-04-06T12:46:09;25.10;1.00
19908;DHT22;10116;53.112;7.356;2023-04-06T12:48:34;25.10;1.00
19908;DHT22;10116;53.112;7.356;2023-04-06T12:51:02;25.00;1.00
19908;DHT22;10116;53.112;7.356;2023-04-06T12:53:28;25.00;1.00
19908;DHT22;10116;53.112;7.356;2023-04-06T12:55:55;25.00;1.00
19908;DHT22;10116;53.112;7.356;2023-04-06T12:58:21;25.00;1.00
19908;DHT22;10116;53.112;7.356;2023-04-06T13:00:48;24.90;1.00
19908;DHT22;10116;53.112;7.356;2023-04-06T13:03:14;24.90;1.00
19908;DHT22;10116;53.112;7.356;2023-04-06T13:05:52;24.90;1.00
19908;DHT22;10116;53.112;7.356;2023-04-06T13:08:19;24.90;1.00
19908;DHT22;10116;53.112;7.356;2023-04-06T13:10:49;24.90;1.00
19908;DHT22;10116;53.112;7.356;2023-04-06T13:13:16;24.90;1.00
19908;DHT22;10116;53.112;7.356;2023-04-06T13:15:41;24.90;1.00
19908;DHT22;10116;53.112;7.356;2023-04-06T13:18:08;24.90;1.00
19908;DHT22;10116;53.112;7.356;2023-04-06T13:20:34;24.90;1.00
19908;DHT22;10116;53.112;7.356;2023-04-06T13:23:00;25.00;1.00
19908;DHT22;10116;53.112;7.356;2023-04-06T13:25:25;25.00;1.00
19908;DHT22;10116;53.112;7.356;2023-04-06T13:27:51;25.10;1.00
19908;DHT22;10116;53.112;7.356;2023-04-06T13:30:17;25.10;1.00
19908;DHT22;10116;53.112;7.356;2023-04-06T13:32:43;25.10;1.00
19908;DHT22;10116;53.112;7.356;2023-04-06T13:35:09;25.10;1.00
19908;DHT22;10116;53.112;7.356;2023-04-06T13:37:35;25.20;1.00
19908;DHT22;10116;53.112;7.356;2023-04-06T13:40:02;25.20;1.00
19908;DHT22;10116;53.112;7.356;2023-04-06T13:42:27;25.20;1.00
19908;DHT22;10116;53.112;7.356;2023-04-06T13:44:53;25.10;1.00
19908;DHT22;10116;53.112;7.356;2023-04-06T13:47:19;25.10;1.00
19908;DHT22;10116;53.112;7.356;2023-04-06T13:49:46;25.10;1.00
19908;DHT22;10116;53.112;7.356;2023-04-06T13:52:12;25.10;1.00
19908;DHT22;10116;53.112;7.356;2023-04-06T13:54:38;25.10;1.00
19908;DHT22;10116;53.112;7.356;2023-04-06T13:57:04;25.10;1.00
19908;DHT22;10116;53.112;7.356;2023-04-06T13:59:34;25.00;1.00
19908;DHT22;10116;53.112;7.356;2023-04-06T14:02:05;25.00;1.00
19908;DHT22;10116;53.112;7.356;2023-04-06T14:04:31;25.00;1.00
19908;DHT22;10116;53.112;7.356;2023-04-06T14:06:57;25.00;1.00
19908;DHT22;10116;53.112;7.356;2023-04-06T14:09:23;25.00;1.00
19908;DHT22;10116;53.112;7.356;2023-04-06T14:11:49;25.00;1.00
19908;DHT22;10116;53.112;7.356;2023-04-06T14:14:16;25.00;1.00
19908;DHT22;10116;53.112;7.356;2023-04-06T14:16:42;24.90;1.00
19908;DHT22;10116;53.112;7.356;2023-04-06T14:19:12;24.90;1.00
19908;DHT22;10116;53.112;7.356;2023-04-06T14:21:38;24.90;1.00
19908;DHT22;10116;53.112;7.356;2023-04-06T14:24:07;24.90;1.00
19908;DHT22;10116;53.112;7.356;2023-04-06T14:26:36;24.90;1.00
19908;DHT22;10116;53.112;7.356;2023-04-06T14:29:05;25.00;1.00
19908;DHT22;10116;53.112;7.356;2023-04-06T14:31:31;25.00;1.00
19908;DHT22;10116;53.112;7.356;2023-04-06T14:33:57;25.00;1.00
19908;DHT22;10116;53.112;7.356;2023-04-06T14:36:23;25.10;1.00
19908;DHT22;10116;53.112;7.356;2023-04-06T14:38:49;25.10;1.00
19908;DHT22;10116;53.112;7.356;2023-04-06T14:41:21;25.10;1.00
19908;DHT22;10116;53.112;7.356;2023-04-06T14:43:47;25.10;1.00
19908;DHT22;10116;53.112;7.356;2023-04-06T14:46:13;25.10;1.00
19908;DHT22;10116;53.112;7.356;2023-04-06T14:48:39;25.10;1.00
19908;DHT22;10116;53.112;7.356;2023-04-06T14:51:05;25.10;1.00
19908;DHT22;10116;53.112;7.356;2023-04-06T14:53:31;25.10;1.00
19908;DHT22;10116;53.112;7.356;2023-04-06T14:55:57;25.10;1.00
19908;DHT22;10116;53.112;7.356;2023-04-06T14:58:23;25.10;1.00
19908;DHT22;10116;53.112;7.356;2023-04-06T15:00:49;25.00;1.00
19908;DHT22;10116;53.112;7.356;2023-04-06T15:03:20;25.00;1.00
19908;DHT22;10116;53.112;7.356;2023-04-06T15:05:46;25.00;1.00
19908;DHT22;10116;53.112;7.356;2023-04-06T15:08:11;25.00;1.00
19908;DHT22;10116;53.112;7.356;2023-04-06T15:10:38;25.00;1.00
19908;DHT22;10116;53.112;7.356;2023-04-06T15:13:04;25.00;1.00
19908;DHT22;10116;53.112;7.356;2023-04-06T15:15:30;25.00;1.00
19908;DHT22;10116;53.112;7.356;2023-04-06T15:17:55;24.90;1.00
19908;DHT22;10116;53.112;7.356;2023-04-06T15:20:21;24.90;1.00
19908;DHT22;10116;53.112;7.356;2023-04-06T15:22:47;24.90;1.00
19908;DHT22;10116;53.112;7.356;2023-04-06T15:25:12;24.90;1.00
19908;DHT22;10116;53.112;7.356;2023-04-06T15:27:38;24.90;1.00
19908;DHT22;10116;53.112;7.356;2023-04-06T15:30:04;25.00;1.00
19908;DHT22;10116;53.112;7.356;2023-04-06T15:32:29;25.00;1.00
19908;DHT22;10116;53.112;7.356;2023-04-06T15:34:59;25.00;1.00
19908;DHT22;10116;53.112;7.356;2023-04-06T15:37:25;25.00;1.00
19908;DHT22;10116;53.112;7.356;2023-04-06T15:39:50;25.00;1.00
19908;DHT22;10116;53.112;7.356;2023-04-06T15:42:16;25.00;1.00
19908;DHT22;10116;53.112;7.356;2023-04-06T15:44:42;25.00;1.00
19908;DHT22;10116;53.112;7.356;2023-04-06T15:47:07;25.00;1.00